Time;durP1;ratioP1;P1;durP2;ratioP2;P2;SDS_P1;SDS_P2;PMS_P1;PMS_P2;Temp;Humidity;BMP_temperature;BMP_pressure;BME280_temperature;BME280_humidity;BME280_pressure;Samples;Min_cycle;Max_cycle;Signal;HPM_P1;HPM_P2
2022/01/27 00:03:08;;;;;;;40.42;27.52;;;;;;;2.88;86.56;102663.81;6476138;23;20013;-73
2022/01/27 00:05:46;;;;;;;36.15;26.25;;;;;;;2.85;86.49;102669.72;6465151;23;20008;-73
2022/01/27 00:08:40;;;;;;;39.60;27.67;;;;;;;2.85;86.42;102656.84;6465470;23;20012;-73
2022/01/27 00:11:14;;;;;;;37.90;26.38;;;;;;;2.81;86.90;102657.50;6464953;23;20005;-73
2022/01/27 00:13:48;;;;;;;38.72;26.52;;;;;;;2.85;86.47;102641.41;6465307;23;20004;-75
2022/01/27 00:16:27;;;;;;;37.80;24.88;;;;;;;2.85;86.72;102636.25;6465040;23;20020;-74
2022/01/27 00:18:58;;;;;;;36.78;27.48;;;;;;;2.83;86.57;102624.97;6465534;23;20389;-74
2022/01/27 00:21:30;;;;;;;37.20;26.63;;;;;;;2.83;86.83;102594.06;6465131;23;20004;-72
2022/01/27 00:24:03;;;;;;;43.47;27.40;;;;;;;2.86;86.80;102604.50;6465480;23;20498;-73
2022/01/27 00:26:34;;;;;;;42.42;28.95;;;;;;;2.85;86.54;102602.75;6465434;23;20088;-73
2022/01/27 00:29:05;;;;;;;38.13;26.63;;;;;;;2.87;86.50;102605.41;6464428;23;20313;-73
2022/01/27 00:31:37;;;;;;;40.60;25.83;;;;;;;2.89;86.59;102609.81;6465338;23;20084;-73
2022/01/27 00:34:08;;;;;;;37.30;28.03;;;;;;;2.90;86.64;102609.00;6465214;23;20001;-72
2022/01/27 00:36:39;;;;;;;41.60;25.80;;;;;;;2.94;86.58;102612.63;6465163;23;20090;-74
2022/01/27 00:39:11;;;;;;;36.93;25.47;;;;;;;2.94;86.37;102619.47;6464866;23;20477;-72
2022/01/27 00:41:42;;;;;;;38.30;27.13;;;;;;;2.96;86.27;102620.41;6464405;23;20454;-73
2022/01/27 00:44:14;;;;;;;34.67;25.93;;;;;;;2.98;86.15;102613.63;6464641;23;20008;-73
2022/01/27 00:46:46;;;;;;;38.20;26.27;;;;;;;3.00;86.10;102604.31;6464785;23;20005;-72
2022/01/27 00:49:17;;;;;;;40.43;26.17;;;;;;;2.99;86.45;102602.53;6465251;23;20016;-74
2022/01/27 00:51:48;;;;;;;36.93;27.97;;;;;;;2.97;86.38;102591.28;6465024;23;20008;-72
2022/01/27 00:54:24;;;;;;;41.53;28.80;;;;;;;3.01;86.25;102583.78;6437709;23;20009;-72
2022/01/27 00:59:47;;;;;;;37.95;26.17;;;;;;;3.01;86.21;102582.88;6464785;23;20020;-70
2022/01/27 01:05:35;;;;;;;36.35;26.80;;;;;;;3.07;85.99;102572.84;6464306;23;20441;-73
2022/01/27 01:07:57;;;;;;;35.10;24.73;;;;;;;3.06;86.01;102581.41;6461099;23;20020;-74
2022/01/27 01:15:53;;;;;;;33.08;24.98;;;;;;;3.06;86.04;102581.41;6464550;23;20427;-73
2022/01/27 01:18:48;;;;;;;36.80;25.27;;;;;;;3.07;86.46;102563.41;6464714;23;20012;-73
2022/01/27 01:32:29;;;;;;;33.93;24.43;;;;;;;3.15;85.85;102561.22;6474642;23;20017;-74
2022/01/27 01:35:04;;;;;;;39.00;26.55;;;;;;;3.19;85.56;102552.81;6464542;23;20005;-71
2022/01/27 01:37:39;;;;;;;33.33;24.35;;;;;;;3.21;85.48;102550.31;6464543;23;20026;-74
2022/01/27 01:40:16;;;;;;;36.90;25.80;;;;;;;3.24;85.45;102550.47;6464347;23;20067;-73
2022/01/27 01:42:47;;;;;;;32.85;23.60;;;;;;;3.24;85.68;102537.56;6464643;23;20389;-74
2022/01/27 01:45:21;;;;;;;33.73;23.97;;;;;;;3.20;85.85;102518.47;6464431;23;20088;-74
2022/01/27 01:47:53;;;;;;;35.45;24.77;;;;;;;3.30;84.96;102514.66;6465141;23;20012;-73
2022/01/27 01:50:25;;;;;;;32.00;22.52;;;;;;;3.27;85.28;102510.22;6464407;23;20765;-72
2022/01/27 01:52:56;;;;;;;38.63;26.00;;;;;;;3.27;85.33;102504.22;6464425;23;20000;-72
2022/01/27 01:55:30;;;;;;;38.80;25.53;;;;;;;3.25;85.38;102509.28;6464341;23;20072;-72
2022/01/27 01:58:02;;;;;;;38.53;25.35;;;;;;;3.28;85.05;102517.16;6464508;23;20000;-73
2022/01/27 02:00:33;;;;;;;35.53;23.63;;;;;;;3.26;85.63;102525.63;6464086;23;20005;-73
2022/01/27 02:03:05;;;;;;;36.47;26.73;;;;;;;3.26;85.40;102516.19;6465441;23;20005;-73
2022/01/27 02:05:43;;;;;;;31.30;23.07;;;;;;;3.31;85.05;102518.97;6466758;23;20008;-73
2022/01/27 02:19:25;;;;;;;34.25;23.55;;;;;;;3.32;84.97;102470.88;6464105;23;20653;-73
2022/01/27 02:22:01;;;;;;;34.08;23.88;;;;;;;3.32;85.35;102461.47;6463940;23;20099;-72
2022/01/27 02:24:35;;;;;;;31.58;23.45;;;;;;;3.33;85.57;102465.78;6464445;23;20031;-71
2022/01/27 02:27:07;;;;;;;35.75;23.33;;;;;;;3.27;85.77;102476.72;6463802;23;20067;-73
2022/01/27 02:29:40;;;;;;;33.80;23.67;;;;;;;3.30;85.59;102483.72;6463540;23;20016;-73
2022/01/27 02:32:13;;;;;;;33.25;23.42;;;;;;;3.29;85.80;102477.66;6463798;23;20005;-71
2022/01/27 02:34:45;;;;;;;31.13;22.35;;;;;;;3.29;85.92;102477.66;6464460;23;20361;-72
2022/01/27 02:37:17;;;;;;;32.53;22.95;;;;;;;3.36;85.68;102475.38;6464169;23;20584;-72
2022/01/27 02:39:48;;;;;;;32.33;22.20;;;;;;;3.35;85.98;102471.00;6464277;23;20128;-72
2022/01/27 02:42:34;;;;;;;30.70;21.60;;;;;;;3.42;85.55;102473.94;6463724;23;20020;-71
2022/01/27 02:45:13;;;;;;;31.48;22.13;;;;;;;3.43;85.43;102459.34;6463874;23;20426;-72
2022/01/27 02:47:45;;;;;;;31.38;22.85;;;;;;;3.36;86.08;102476.22;6464160;23;20470;-71
2022/01/27 02:50:16;;;;;;;31.53;21.80;;;;;;;3.34;86.12;102459.84;6464350;23;20005;-72
2022/01/27 02:52:48;;;;;;;31.73;22.60;;;;;;;3.39;86.12;102454.88;6464440;23;20005;-72
2022/01/27 02:55:19;;;;;;;33.43;21.97;;;;;;;3.42;86.12;102455.88;6463790;23;20005;-73
2022/01/27 02:57:50;;;;;;;35.63;24.23;;;;;;;3.43;86.23;102462.81;6463959;23;20369;-72
2022/01/27 03:00:22;;;;;;;32.77;21.47;;;;;;;3.45;85.91;102448.28;6463448;23;20016;-73
2022/01/27 03:02:54;;;;;;;31.38;23.02;;;;;;;3.40;86.31;102429.16;6464184;23;20027;-72
2022/01/27 03:05:25;;;;;;;31.37;21.63;;;;;;;3.41;86.49;102432.63;6463804;23;20005;-74
2022/01/27 03:07:57;;;;;;;34.73;22.43;;;;;;;3.42;86.43;102413.78;6464014;23;20418;-72
2022/01/27 03:10:32;;;;;;;33.00;21.47;;;;;;;3.44;86.40;102415.56;6463775;23;20016;-71
2022/01/27 03:13:04;;;;;;;32.13;22.17;;;;;;;3.37;86.83;102407.53;6463717;23;20457;-72
2022/01/27 03:15:35;;;;;;;29.57;22.37;;;;;;;3.38;86.88;102415.34;6463732;23;20028;-72
2022/01/27 03:18:06;;;;;;;36.10;23.50;;;;;;;3.38;87.02;102433.38;6463576;23;20446;-72
2022/01/27 03:20:39;;;;;;;31.50;22.87;;;;;;;3.38;87.18;102435.97;6463742;23;20421;-72
2022/01/27 03:23:10;;;;;;;33.17;22.35;;;;;;;3.44;86.88;102405.25;6465909;23;20000;-73
2022/01/27 03:25:42;;;;;;;37.77;23.53;;;;;;;3.40;86.94;102403.38;6466042;23;20070;-74
2022/01/27 03:28:13;;;;;;;33.83;22.27;;;;;;;3.39;87.28;102423.94;6465934;23;20087;-73
2022/01/27 03:30:45;;;;;;;34.43;22.53;;;;;;;3.39;87.20;102396.47;6465261;23;20239;-73
2022/01/27 03:33:16;;;;;;;34.00;22.57;;;;;;;3.35;87.51;102406.56;6465346;23;20004;-74
2022/01/27 03:35:47;;;;;;;35.50;22.93;;;;;;;3.32;87.54;102394.44;6465623;23;20043;-73
2022/01/27 03:38:19;;;;;;;29.33;21.10;;;;;;;3.32;87.62;102385.81;6465394;23;20072;-73
2022/01/27 03:40:50;;;;;;;34.70;21.67;;;;;;;3.31;87.92;102377.22;6465251;23;20437;-75
2022/01/27 03:43:22;;;;;;;32.13;23.23;;;;;;;3.29;88.03;102389.16;6465614;23;20285;-72
2022/01/27 03:45:53;;;;;;;37.00;22.60;;;;;;;3.26;88.27;102396.75;6465555;23;20032;-73
2022/01/27 03:48:24;;;;;;;34.07;22.13;;;;;;;3.18;88.53;102387.81;6465418;23;20023;-73
2022/01/27 03:50:56;;;;;;;33.50;21.13;;;;;;;3.19;88.88;102399.88;6467022;23;20004;-73
2022/01/27 03:53:27;;;;;;;32.20;23.07;;;;;;;3.20;89.19;102392.22;6465006;23;20004;-72
2022/01/27 03:55:58;;;;;;;35.50;23.00;;;;;;;3.26;88.82;102399.34;6465574;23;20091;-72
2022/01/27 03:58:30;;;;;;;33.07;21.10;;;;;;;3.36;88.50;102388.59;6465201;23;20481;-72
2022/01/27 04:01:04;;;;;;;37.00;23.73;;;;;;;3.34;88.63;102382.50;6465098;23;20007;-72
2022/01/27 04:03:37;;;;;;;34.97;21.77;;;;;;;3.41;88.54;102384.53;6465941;23;20027;-73
2022/01/27 04:06:10;;;;;;;35.90;23.08;;;;;;;3.38;89.05;102378.34;6464940;23;20142;-74
2022/01/27 04:08:41;;;;;;;36.90;24.65;;;;;;;3.40;88.63;102364.72;6465436;23;20015;-73
2022/01/27 04:11:12;;;;;;;33.93;22.57;;;;;;;3.36;89.35;102374.84;6464966;23;20008;-75
2022/01/27 04:13:44;;;;;;;34.40;21.90;;;;;;;3.36;89.29;102362.81;6465429;23;20009;-72
2022/01/27 04:16:15;;;;;;;31.20;22.17;;;;;;;3.36;89.42;102355.09;6465724;23;20004;-72
2022/01/27 04:18:46;;;;;;;35.97;23.27;;;;;;;3.36;89.58;102343.91;6465250;23;20055;-73
2022/01/27 04:21:18;;;;;;;38.60;20.97;;;;;;;3.35;89.52;102335.31;6465579;23;20031;-73
2022/01/27 04:23:51;;;;;;;32.85;21.52;;;;;;;3.31;89.44;102342.84;6465360;23;20084;-74
2022/01/27 04:26:30;;;;;;;36.22;22.30;;;;;;;3.31;90.16;102354.00;6464669;23;20017;-73
2022/01/27 04:29:02;;;;;;;34.95;20.90;;;;;;;3.41;89.54;102340.72;6465106;23;20019;-73
2022/01/27 04:31:34;;;;;;;36.03;21.90;;;;;;;3.43;89.69;102343.31;6465169;23;20013;-73
2022/01/27 04:34:05;;;;;;;34.60;22.37;;;;;;;3.38;89.92;102356.06;6464372;23;20008;-72
2022/01/27 04:36:38;;;;;;;37.67;21.53;;;;;;;3.40;89.90;102353.53;6464960;23;20299;-72
2022/01/27 04:44:50;;;;;;;32.85;21.77;;;;;;;3.31;90.08;102322.22;6369829;23;20013;-72
2022/01/27 04:47:32;;;;;;;36.15;21.85;;;;;;;3.29;90.42;102325.59;6368484;23;20037;-73
2022/01/27 04:50:03;;;;;;;33.30;22.20;;;;;;;3.23;90.80;102327.03;6369406;23;20084;-73
2022/01/27 04:52:41;;;;;;;33.33;21.03;;;;;;;3.21;90.97;102333.84;6368230;23;20470;-72
2022/01/27 04:55:14;;;;;;;30.33;20.55;;;;;;;3.28;90.63;102325.53;6368787;23;20037;-71
2022/01/27 04:57:46;;;;;;;31.40;20.85;;;;;;;3.20;90.36;102325.19;6368476;23;20043;-72
2022/01/27 05:00:18;;;;;;;33.27;22.47;;;;;;;3.16;91.37;102317.31;6368770;23;20037;-74
2022/01/27 05:02:56;;;;;;;35.08;22.02;;;;;;;3.17;91.43;102316.47;6368495;23;20010;-71
2022/01/27 05:05:28;;;;;;;30.10;20.98;;;;;;;3.17;91.28;102301.00;6368760;23;20455;-72
2022/01/27 05:08:01;;;;;;;31.60;21.00;;;;;;;3.24;90.97;102296.19;6369124;23;20016;-72
2022/01/27 05:10:33;;;;;;;32.97;21.85;;;;;;;3.13;91.44;102294.84;6368237;23;20013;-72
2022/01/27 05:13:12;;;;;;;31.73;20.30;;;;;;;3.17;91.31;102298.44;6368451;23;20463;-73
2022/01/27 05:15:45;;;;;;;35.35;22.05;;;;;;;3.23;91.12;102299.56;6368211;23;20053;-72
2022/01/27 05:18:16;;;;;;;31.13;21.73;;;;;;;3.23;91.28;102299.56;6368765;23;20010;-72
2022/01/27 05:20:48;;;;;;;35.80;22.27;;;;;;;3.16;91.65;102288.97;6386050;23;20015;-73
2022/01/27 05:23:19;;;;;;;34.13;22.80;;;;;;;3.13;91.80;102294.84;6464644;23;20449;-74
2022/01/27 05:25:51;;;;;;;36.37;21.23;;;;;;;3.19;91.95;102282.22;6464657;23;20009;-73
2022/01/27 05:28:22;;;;;;;30.03;21.03;;;;;;;3.19;92.04;102276.19;6464825;23;20070;-72
2022/01/27 05:30:54;;;;;;;31.23;22.10;;;;;;;3.29;91.75;102296.38;6464407;23;20031;-73
2022/01/27 05:33:25;;;;;;;33.47;20.90;;;;;;;3.33;91.51;102269.03;6464752;23;20059;-74
2022/01/27 05:35:56;;;;;;;32.27;21.03;;;;;;;3.32;91.63;102259.53;6464257;23;20011;-74
2022/01/27 05:38:28;;;;;;;33.03;20.30;;;;;;;3.41;90.95;102263.38;6464466;23;20115;-73
2022/01/27 05:40:59;;;;;;;33.50;20.53;;;;;;;3.38;91.39;102271.00;6463520;23;20031;-73
2022/01/27 05:43:31;;;;;;;32.13;21.90;;;;;;;3.39;91.26;102266.69;6464563;23;20244;-73
2022/01/27 05:46:04;;;;;;;34.63;21.63;;;;;;;3.42;91.30;102259.97;6464228;23;20008;-74
2022/01/27 05:48:35;;;;;;;34.72;21.27;;;;;;;3.51;91.00;102276.63;6464075;23;20013;-74
2022/01/27 05:51:07;;;;;;;33.33;22.07;;;;;;;3.55;91.07;102276.81;6463321;23;20009;-71
2022/01/27 05:53:38;;;;;;;32.40;20.73;;;;;;;3.56;90.78;102260.53;6463924;23;20369;-71
2022/01/27 05:56:10;;;;;;;34.77;20.90;;;;;;;3.59;90.63;102270.97;6464678;23;20008;-73
2022/01/27 05:58:42;;;;;;;31.47;20.93;;;;;;;3.62;90.62;102263.34;6464254;23;20039;-72
2022/01/27 06:01:14;;;;;;;35.83;22.52;;;;;;;3.64;90.59;102260.84;6464019;23;20009;-73
2022/01/27 06:03:45;;;;;;;35.00;21.80;;;;;;;3.67;90.65;102260.97;6464090;23;20000;-72
2022/01/27 06:06:16;;;;;;;31.97;22.30;;;;;;;3.71;90.39;102259.38;6463754;23;20008;-73
2022/01/27 06:08:48;;;;;;;38.23;23.53;;;;;;;3.74;90.22;102256.91;6464182;23;20326;-72
2022/01/27 06:11:19;;;;;;;37.77;23.33;;;;;;;3.73;90.57;102253.44;6464252;23;20406;-72
2022/01/27 06:13:50;;;;;;;37.03;20.70;;;;;;;3.79;90.32;102252.81;6464378;23;20004;-71
2022/01/27 06:16:22;;;;;;;37.10;23.30;;;;;;;3.79;90.48;102251.09;6463981;23;20012;-73
2022/01/27 06:18:53;;;;;;;38.17;21.90;;;;;;;3.72;91.09;102246.53;6463883;23;20249;-71
2022/01/27 06:21:24;;;;;;;37.73;23.30;;;;;;;3.75;91.31;102246.66;6463709;23;20009;-72
2022/01/27 06:23:56;;;;;;;34.67;23.43;;;;;;;3.74;91.90;102254.34;6464188;23;20000;-72
2022/01/27 06:26:30;;;;;;;36.53;22.00;;;;;;;3.72;92.16;102245.63;6464819;23;20066;-73
2022/01/27 06:29:01;;;;;;;33.75;22.92;;;;;;;3.73;92.56;102255.16;6463768;23;20004;-73
2022/01/27 06:31:32;;;;;;;34.90;23.47;;;;;;;3.72;93.03;102246.53;6464148;23;20116;-74
2022/01/27 06:34:04;;;;;;;36.83;22.20;;;;;;;3.70;93.60;102250.72;6463693;23;20001;-73
2022/01/27 06:36:35;;;;;;;37.10;22.90;;;;;;;3.74;93.39;102244.91;6463574;23;20013;-72
2022/01/27 06:39:06;;;;;;;35.50;22.40;;;;;;;3.74;93.41;102244.91;6463943;23;20096;-73
2022/01/27 06:41:38;;;;;;;37.83;23.37;;;;;;;3.75;93.76;102254.41;6463435;23;20036;-72
2022/01/27 06:44:09;;;;;;;44.33;25.33;;;;;;;3.73;94.24;102237.09;6463503;23;20427;-72
2022/01/27 06:46:41;;;;;;;40.20;24.27;;;;;;;3.76;94.21;102221.75;6463420;23;20047;-71
2022/01/27 06:49:16;;;;;;;42.50;22.83;;;;;;;3.78;94.18;102225.25;6463448;23;20076;-72
2022/01/27 06:51:47;;;;;;;40.28;27.70;;;;;;;3.81;94.17;102222.78;6463006;23;20007;-72
2022/01/27 06:54:19;;;;;;;34.30;23.43;;;;;;;3.78;94.35;102214.94;6463905;23;20434;-73
2022/01/27 06:56:50;;;;;;;38.10;23.30;;;;;;;3.81;94.35;102215.91;6465079;23;20008;-72
2022/01/27 06:59:22;;;;;;;34.90;23.17;;;;;;;3.84;94.41;102240.97;6465998;23;20004;-72
2022/01/27 07:01:53;;;;;;;35.20;23.67;;;;;;;3.88;94.28;102227.38;6465422;23;20009;-71
2022/01/27 07:04:24;;;;;;;35.50;22.93;;;;;;;3.94;93.88;102235.31;6465710;23;20687;-72
2022/01/27 07:06:56;;;;;;;37.17;25.20;;;;;;;3.93;94.13;102219.78;6465462;23;20086;-72
2022/01/27 07:09:27;;;;;;;43.33;25.87;;;;;;;3.95;93.90;102220.75;6465391;23;20004;-72
2022/01/27 07:11:59;;;;;;;35.50;24.77;;;;;;;3.95;94.04;102226.78;6465280;23;20374;-74
2022/01/27 07:14:32;;;;;;;37.60;24.67;;;;;;;3.96;93.93;102219.91;6465942;23;20012;-72
2022/01/27 07:17:04;;;;;;;37.65;24.75;;;;;;;3.99;93.88;102220.91;6464825;23;20422;-73
2022/01/27 07:19:35;;;;;;;42.53;24.03;;;;;;;4.00;93.60;102219.22;6465817;23;20018;-72
2022/01/27 07:22:07;;;;;;;38.47;22.40;;;;;;;4.00;93.73;102226.94;6464831;23;20120;-71
2022/01/27 07:24:38;;;;;;;36.87;25.80;;;;;;;4.01;93.82;102224.44;6465530;23;20005;-71
2022/01/27 07:27:10;;;;;;;36.43;23.37;;;;;;;4.01;93.93;102233.88;6465527;23;20005;-72
2022/01/27 07:29:41;;;;;;;40.63;23.67;;;;;;;4.06;93.70;102223.69;6465893;23;20001;-72
2022/01/27 07:32:12;;;;;;;41.83;24.90;;;;;;;4.05;93.76;102233.16;6464971;23;20070;-71
2022/01/27 07:34:44;;;;;;;37.03;23.50;;;;;;;4.07;93.89;102236.66;6465569;23;20337;-72
2022/01/27 07:37:15;;;;;;;39.53;28.17;;;;;;;4.09;93.93;102229.88;6465179;23;20431;-71
2022/01/27 07:39:46;;;;;;;45.87;26.40;;;;;;;4.09;93.92;102237.63;6465503;23;20422;-72
2022/01/27 07:42:18;;;;;;;40.97;25.93;;;;;;;4.14;93.73;102245.53;6465120;23;20330;-72
2022/01/27 07:44:49;;;;;;;38.37;24.93;;;;;;;4.19;93.56;102233.69;6465371;23;20066;-72
2022/01/27 07:47:21;;;;;;;40.37;24.30;;;;;;;4.23;93.18;102224.34;6465302;23;20000;-72
2022/01/27 07:49:52;;;;;;;37.60;23.97;;;;;;;4.22;93.44;102230.31;6465078;23;20031;-73
2022/01/27 07:52:23;;;;;;;35.97;23.40;;;;;;;4.25;93.76;102230.41;6464030;23;20438;-72
2022/01/27 07:54:55;;;;;;;42.47;25.53;;;;;;;4.25;93.54;102233.00;6464717;23;20091;-71
2022/01/27 07:57:26;;;;;;;39.93;26.17;;;;;;;4.18;95.05;102231.91;6462363;23;20008;-71
2022/01/27 07:59:58;;;;;;;40.03;25.27;;;;;;;4.13;96.25;102230.88;6465248;23;20019;-73
2022/01/27 08:02:29;;;;;;;44.30;27.50;;;;;;;4.05;97.76;102240.91;6464259;23;20008;-72
2022/01/27 08:05:00;;;;;;;46.67;27.73;;;;;;;3.99;98.82;102251.88;6462484;23;20001;-72
2022/01/27 08:07:32;;;;;;;53.83;28.37;;;;;;;3.92;100.00;102249.00;6464505;23;20406;-72
2022/01/27 08:10:04;;;;;;;48.70;28.27;;;;;;;3.91;100.00;102239.50;6464074;23;20008;-71
2022/01/27 08:12:40;;;;;;;53.13;29.60;;;;;;;3.92;100.00;102256.75;6464980;23;20008;-71
2022/01/27 08:15:14;;;;;;;54.15;32.72;;;;;;;3.89;100.00;102246.31;6465156;23;20014;-73
2022/01/27 08:17:46;;;;;;;59.75;33.53;;;;;;;3.83;100.00;102244.34;6464459;23;20024;-73
2022/01/27 08:20:17;;;;;;;62.63;34.92;;;;;;;3.81;100.00;102239.13;6464939;23;20020;-73
2022/01/27 08:22:51;;;;;;;60.73;35.60;;;;;;;3.84;100.00;102234.09;6465198;23;20004;-73
2022/01/27 08:25:23;;;;;;;62.83;34.30;;;;;;;3.86;100.00;102236.72;6464562;23;20024;-73
2022/01/27 08:27:58;;;;;;;63.08;34.35;;;;;;;3.89;100.00;102235.97;6464412;23;20005;-73
2022/01/27 08:30:36;;;;;;;61.72;33.22;;;;;;;3.91;100.00;102236.91;6437668;23;20054;-72
2022/01/27 08:33:14;;;;;;;65.47;36.45;;;;;;;3.86;100.00;102234.16;6464873;23;20008;-73
2022/01/27 08:35:46;;;;;;;79.40;38.97;;;;;;;3.83;100.00;102228.88;6464390;23;20013;-73
2022/01/27 08:38:17;;;;;;;75.93;38.07;;;;;;;3.84;100.00;102226.34;6464373;23;20331;-74
2022/01/27 08:40:49;;;;;;;65.47;37.90;;;;;;;3.83;100.00;102229.78;6464410;23;20004;-73
2022/01/27 08:43:20;;;;;;;66.80;38.77;;;;;;;3.82;100.00;102224.56;6464390;23;20087;-73
2022/01/27 08:45:53;;;;;;;78.90;39.47;;;;;;;3.82;100.00;102230.59;6464743;23;20418;-73
2022/01/27 08:48:25;;;;;;;73.55;39.35;;;;;;;3.83;100.00;102234.03;6464750;23;20009;-73
2022/01/27 08:51:01;;;;;;;72.53;40.08;;;;;;;3.86;100.00;102233.28;6464764;23;20043;-73
2022/01/27 08:53:36;;;;;;;74.10;43.03;;;;;;;3.88;100.00;102229.06;6464427;23;20004;-73
2022/01/27 08:56:10;;;;;;;74.25;39.25;;;;;;;3.91;100.00;102230.06;6464287;23;20004;-73
2022/01/27 08:58:41;;;;;;;75.82;40.03;;;;;;;3.94;100.00;102227.59;6465042;23;20418;-72
2022/01/27 09:01:13;;;;;;;81.17;40.37;;;;;;;3.99;100.00;102226.06;6464849;23;20032;-74
2022/01/27 09:03:45;;;;;;;74.17;41.30;;;;;;;4.04;100.00;102233.09;6464744;23;20005;-73
2022/01/27 09:06:19;;;;;;;77.88;44.90;;;;;;;4.04;100.00;102230.50;6464859;23;20076;-71
2022/01/27 09:08:50;;;;;;;82.38;40.47;;;;;;;4.08;100.00;102225.53;6464367;23;20079;-71
2022/01/27 09:11:22;;;;;;;82.70;41.73;;;;;;;4.12;100.00;102240.31;6463863;23;20004;-71
2022/01/27 09:13:58;;;;;;;87.80;46.27;;;;;;;4.15;100.00;102226.63;6464563;23;20008;-71
2022/01/27 09:16:31;;;;;;;77.65;41.13;;;;;;;4.22;100.00;102220.88;6463959;23;20004;-72
2022/01/27 09:19:04;;;;;;;77.50;45.63;;;;;;;4.27;100.00;102223.63;6463985;23;20029;-74
2022/01/27 09:21:45;;;;;;;82.40;45.15;;;;;;;4.30;100.00;102223.72;6464533;23;20054;-72
2022/01/27 09:24:18;;;;;;;79.88;43.83;;;;;;;4.35;100.00;102224.78;6463839;23;20020;-74
2022/01/27 09:26:58;;;;;;;73.13;39.92;;;;;;;4.41;100.00;102216.38;6463867;23;20500;-73
2022/01/27 09:29:30;;;;;;;68.32;42.13;;;;;;;4.43;100.00;102217.28;6464099;23;20490;-73
2022/01/27 09:32:02;;;;;;;75.20;42.33;;;;;;;4.45;100.00;102220.81;6464378;23;20080;-74
2022/01/27 09:34:34;;;;;;;74.45;41.33;;;;;;;4.44;100.00;102229.38;6464551;23;20009;-73
2022/01/27 09:37:06;;;;;;;75.50;40.40;;;;;;;4.45;100.00;102215.66;6464489;23;20124;-72
2022/01/27 09:39:38;;;;;;;68.80;39.47;;;;;;;4.47;100.00;102225.19;6463761;23;20437;-72
2022/01/27 09:42:10;;;;;;;73.43;41.60;;;;;;;4.51;100.00;102219.34;6463478;23;20358;-72
2022/01/27 09:44:44;;;;;;;81.72;43.78;;;;;;;4.52;100.00;102210.78;6463654;23;20102;-73
2022/01/27 09:47:16;;;;;;;65.05;40.05;;;;;;;4.53;100.00;102217.69;6463745;23;20075;-73
2022/01/27 09:49:55;;;;;;;70.72;43.55;;;;;;;4.54;100.00;102216.88;6461842;23;20012;-72
2022/01/27 09:52:26;;;;;;;69.28;43.15;;;;;;;4.55;100.00;102220.31;6464107;23;20004;-73
2022/01/27 09:54:58;;;;;;;63.87;44.03;;;;;;;4.57;100.00;102229.00;6464392;23;20492;-71
2022/01/27 09:57:29;;;;;;;62.20;38.85;;;;;;;4.60;100.00;102223.06;6463758;23;20095;-73
2022/01/27 10:00:03;;;;;;;60.33;37.83;;;;;;;4.60;100.00;102242.00;6463723;23;20446;-73
2022/01/27 10:02:34;;;;;;;65.15;39.25;;;;;;;4.61;100.00;102232.59;6463732;23;20087;-72
2022/01/27 10:05:08;;;;;;;62.00;40.30;;;;;;;4.62;100.00;102242.97;6463943;23;20084;-72
2022/01/27 10:07:40;;;;;;;63.90;42.13;;;;;;;4.63;100.00;102246.41;6464330;23;20494;-74
2022/01/27 10:10:16;;;;;;;60.95;36.28;;;;;;;4.66;100.00;102243.94;6464081;23;20055;-72
2022/01/27 10:12:50;;;;;;;63.53;39.30;;;;;;;4.66;100.00;102244.81;6463812;23;20008;-72
2022/01/27 10:15:23;;;;;;;59.33;41.00;;;;;;;4.68;100.00;102225.06;6463412;23;20009;-72
2022/01/27 10:18:03;;;;;;;63.10;39.65;;;;;;;4.70;100.00;102232.88;6464121;23;20028;-72
2022/01/27 10:20:37;;;;;;;61.72;39.55;;;;;;;4.71;100.00;102232.06;6464333;23;20008;-72
2022/01/27 10:23:11;;;;;;;58.10;41.38;;;;;;;4.73;100.00;102230.41;6464193;23;20008;-72
2022/01/27 10:25:51;;;;;;;55.42;37.47;;;;;;;4.74;100.00;102222.72;6464330;23;20016;-73
2022/01/27 10:28:48;;;;;;;57.63;37.15;;;;;;;4.78;100.00;102225.41;6437746;23;20012;-72
2022/01/27 10:31:24;;;;;;;54.10;39.65;;;;;;;4.80;100.00;102221.16;6465359;23;20005;-73
2022/01/27 10:34:03;;;;;;;51.63;36.10;;;;;;;4.83;100.00;102218.69;6465754;23;20036;-73
2022/01/27 10:36:43;;;;;;;53.08;37.10;;;;;;;4.85;100.00;102227.38;6465971;23;20083;-72
2022/01/27 10:39:20;;;;;;;54.42;35.75;;;;;;;4.87;100.00;102236.06;6466186;23;20011;-74
2022/01/27 10:41:56;;;;;;;55.67;37.70;;;;;;;4.89;100.00;102221.47;6465435;23;20453;-73
2022/01/27 10:44:43;;;;;;;53.47;37.10;;;;;;;4.91;100.00;102227.56;6465755;23;20013;-73
2022/01/27 10:47:21;;;;;;;50.22;34.55;;;;;;;4.93;100.00;102226.81;6465602;23;20009;-73
2022/01/27 10:50:05;;;;;;;47.92;35.13;;;;;;;4.93;100.00;102231.97;6466257;23;20015;-73
2022/01/27 10:52:44;;;;;;;53.17;36.78;;;;;;;4.93;100.00;102225.94;6465499;23;20054;-72
2022/01/27 10:55:19;;;;;;;45.28;34.15;;;;;;;4.95;100.00;102234.59;6466030;23;20036;-73
2022/01/27 10:57:51;;;;;;;50.85;37.40;;;;;;;4.98;100.00;102233.84;6464987;23;20004;-73
2022/01/27 11:00:24;;;;;;;44.23;32.77;;;;;;;5.02;100.00;102233.09;6465583;23;20005;-74
2022/01/27 11:02:58;;;;;;;47.50;36.30;;;;;;;5.05;100.00;102234.06;6465916;23;20338;-73
2022/01/27 11:05:32;;;;;;;49.20;38.00;;;;;;;5.08;100.00;102233.31;6465796;23;20448;-72
2022/01/27 11:08:03;;;;;;;52.20;35.78;;;;;;;5.12;100.00;102222.25;6465278;23;20004;-73
2022/01/27 11:10:35;;;;;;;52.33;37.57;;;;;;;5.17;100.00;102223.28;6465392;23;20015;-73
2022/01/27 11:13:08;;;;;;;48.17;34.33;;;;;;;5.18;100.00;102226.72;6464979;23;20004;-73
2022/01/27 11:15:41;;;;;;;46.17;35.47;;;;;;;5.22;100.00;102218.25;6465337;23;20577;-73
2022/01/27 11:18:15;;;;;;;48.97;36.58;;;;;;;5.29;100.00;102220.19;6465559;23;20005;-75
2022/01/27 11:21:00;;;;;;;49.33;35.17;;;;;;;5.32;100.00;102211.69;6465058;23;20013;-73
2022/01/27 11:26:16;;;;;;;49.20;34.65;;;;;;;5.40;100.00;102208.50;6465145;23;20066;-74
2022/01/27 11:28:48;;;;;;;47.70;33.80;;;;;;;5.45;100.00;102199.16;6465415;23;20019;-73
2022/01/27 11:31:38;;;;;;;52.72;36.03;;;;;;;5.51;100.00;102187.28;6465387;23;20005;-73
2022/01/27 11:34:12;;;;;;;53.00;36.88;;;;;;;5.54;100.00;102185.66;6465417;23;20260;-73
2022/01/27 11:37:05;;;;;;;52.95;34.65;;;;;;;5.61;100.00;102194.47;6465021;23;20013;-73
2022/01/27 11:39:56;;;;;;;49.85;34.28;;;;;;;5.64;100.00;102187.66;6465123;23;20418;-73
2022/01/27 11:42:37;;;;;;;47.65;34.97;;;;;;;5.69;100.00;102182.63;6464259;23;20012;-73
2022/01/27 11:45:20;;;;;;;51.85;36.55;;;;;;;5.73;100.00;102175.84;6464608;23;20005;-73
2022/01/27 11:48:01;;;;;;;58.92;35.30;;;;;;;5.75;100.00;102187.13;6465113;23;20009;-73
2022/01/27 11:50:37;;;;;;;51.58;37.45;;;;;;;5.75;100.00;102179.38;6465271;23;20062;-73
2022/01/27 11:53:11;;;;;;;53.22;34.97;;;;;;;5.77;100.00;102182.88;6464882;23;20322;-72
2022/01/27 11:55:45;;;;;;;54.45;36.80;;;;;;;5.77;100.00;102181.16;6465363;23;20027;-72
2022/01/27 11:58:21;;;;;;;52.92;37.05;;;;;;;5.79;100.00;102174.31;6464415;23;20009;-73
2022/01/27 12:01:17;;;;;;;50.58;37.47;;;;;;;5.83;100.00;102194.28;6462553;23;20062;-73
2022/01/27 12:04:07;;;;;;;51.67;34.45;;;;;;;5.83;100.00;102178.75;6464234;23;20338;-74
2022/01/27 12:06:48;;;;;;;44.85;33.58;;;;;;;5.87;100.00;102173.66;6463794;23;20013;-74
2022/01/27 12:09:19;;;;;;;48.85;34.10;;;;;;;5.88;100.00;102175.44;6464078;23;20034;-72
2022/01/27 12:12:02;;;;;;;46.80;33.87;;;;;;;5.89;100.00;102166.81;6464977;23;20030;-71
2022/01/27 12:14:38;;;;;;;42.42;31.45;;;;;;;5.92;100.00;102177.25;6463732;23;20020;-72
2022/01/27 12:17:10;;;;;;;51.20;33.03;;;;;;;5.95;100.00;102167.00;6464486;23;20016;-72
2022/01/27 12:19:50;;;;;;;44.03;30.93;;;;;;;5.98;100.00;102172.28;6464881;23;20017;-75
2022/01/27 12:22:28;;;;;;;42.20;29.90;;;;;;;6.00;100.00;102168.03;6464552;23;20031;-73
2022/01/27 12:25:01;;;;;;;40.05;27.95;;;;;;;6.04;100.00;102162.13;6463700;23;20001;-74
2022/01/27 12:27:32;;;;;;;44.33;28.10;;;;;;;6.06;100.00;102155.25;6464878;23;20302;-72